Time;durP1;ratioP1;P1;durP2;ratioP2;P2;SDS_P1;SDS_P2;PMS_P1;PMS_P2;Temp;Humidity;BMP_temperature;BMP_pressure;BME280_temperature;BME280_humidity;BME280_pressure;Samples;Min_cycle;Max_cycle;Signal;HPM_P1;HPM_P2
2022/12/05 00:00:14;;;;;;;48.63;19.67;;;;;;;-142.75;100.00;78755.91;5004660;28;20333;-65
2022/12/05 00:02:40;;;;;;;46.63;18.77;;;;;;;-142.75;100.00;78753.94;5005037;28;20025;-65
2022/12/05 00:05:05;;;;;;;44.30;19.85;;;;;;;-142.75;100.00;78748.03;5005032;28;20469;-65
2022/12/05 00:07:31;;;;;;;45.35;19.50;;;;;;;-142.75;100.00;78750.00;5004681;28;20343;-65
2022/12/05 00:09:57;;;;;;;48.05;19.52;;;;;;;-142.75;100.00;78740.13;5004931;28;20320;-65
2022/12/05 00:12:22;;;;;;;48.80;19.58;;;;;;;-142.75;100.00;78744.09;5004903;28;20362;-65
2022/12/05 00:14:48;;;;;;;42.97;19.00;;;;;;;-142.75;100.00;78734.22;5004709;28;20383;-65
2022/12/05 00:17:13;;;;;;;49.55;19.50;;;;;;;-142.75;100.00;78744.09;5003212;28;20321;-65
2022/12/05 00:19:39;;;;;;;42.45;19.70;;;;;;;-142.75;100.00;78744.09;5004520;28;20349;-65
2022/12/05 00:22:04;;;;;;;46.85;18.20;;;;;;;-142.75;100.00;78736.19;5004585;28;20345;-65
2022/12/05 00:24:31;;;;;;;42.13;17.53;;;;;;;-142.75;100.00;78736.19;5004128;28;20868;-65
2022/12/05 00:26:56;;;;;;;46.17;19.35;;;;;;;-142.75;100.00;78726.34;5004477;28;20059;-65
2022/12/05 00:29:22;;;;;;;41.28;15.95;;;;;;;-142.75;100.00;78732.25;5004271;28;20419;-66
2022/12/05 00:31:47;;;;;;;42.58;19.50;;;;;;;-142.75;100.00;78736.19;5004007;28;20251;-64
2022/12/05 00:34:13;;;;;;;41.45;15.93;;;;;;;-142.75;100.00;78734.22;5002263;28;20418;-65
2022/12/05 00:36:39;;;;;;;47.22;18.85;;;;;;;-142.75;100.00;78726.34;5003987;28;20478;-66
2022/12/05 00:39:08;;;;;;;41.17;17.88;;;;;;;-142.75;100.00;78708.63;5002247;28;20329;-65
2022/12/05 00:41:34;;;;;;;42.53;19.50;;;;;;;-142.75;100.00;78710.59;5003046;28;20035;-66
2022/12/05 00:44:00;;;;;;;45.83;18.10;;;;;;;-142.75;100.00;78728.31;5004222;28;20194;-65
2022/12/05 00:46:28;;;;;;;42.00;18.63;;;;;;;-142.75;100.00;78712.56;5004123;28;20669;-65
2022/12/05 00:48:55;;;;;;;48.00;18.40;;;;;;;-142.75;100.00;78704.69;5003896;28;20131;-65
2022/12/05 00:51:25;;;;;;;39.47;17.27;;;;;;;-142.75;100.00;78708.63;5003813;28;20147;-65
2022/12/05 00:53:51;;;;;;;42.30;17.60;;;;;;;-142.75;100.00;78708.63;5004157;28;20085;-64
2022/12/05 00:56:22;;;;;;;46.67;19.17;;;;;;;-142.75;100.00;78704.69;5009344;28;20193;-66
2022/12/05 00:58:49;;;;;;;41.20;18.17;;;;;;;-142.75;100.00;78706.66;5003845;28;20136;-66
2022/12/05 01:01:19;;;;;;;42.73;18.93;;;;;;;-142.75;100.00;78692.88;5003976;28;20123;-67
2022/12/05 01:03:46;;;;;;;37.07;16.87;;;;;;;-142.75;100.00;78706.66;5000721;28;20198;-67
2022/12/05 01:06:14;;;;;;;37.73;17.90;;;;;;;-142.75;100.00;78702.72;5003608;28;20040;-67
2022/12/05 01:08:40;;;;;;;39.03;17.17;;;;;;;-142.75;100.00;78712.56;5003460;28;20090;-67
2022/12/05 01:11:06;;;;;;;;;;;;;;;-142.75;100.00;78696.81;5004074;28;20024;-67
2022/12/05 01:13:33;;;;;;;34.60;12.15;;;;;;;-142.75;100.00;78708.63;5002206;28;20461;-67
2022/12/05 01:15:58;;;;;;;;;;;;;;;-142.75;100.00;78688.94;5002227;28;20028;-67
2022/12/05 01:18:24;;;;;;;39.10;16.80;;;;;;;-142.75;100.00;78704.69;5003410;28;20458;-66
2022/12/05 01:20:50;;;;;;;36.30;16.70;;;;;;;-142.75;100.00;78694.84;5004289;28;20036;-66
2022/12/05 01:23:15;;;;;;;43.28;18.30;;;;;;;-142.75;100.00;78698.78;5004055;28;20031;-66
2022/12/05 01:25:43;;;;;;;42.63;18.17;;;;;;;-142.75;100.00;78692.88;5003796;28;20266;-67
2022/12/05 01:28:08;;;;;;;39.63;16.77;;;;;;;-142.75;100.00;78688.94;5001335;28;20028;-67
2022/12/05 01:30:46;;;;;;;35.75;15.75;;;;;;;-142.75;100.00;78696.81;5001416;28;20175;-66
2022/12/05 01:33:12;;;;;;;34.67;16.17;;;;;;;-142.75;100.00;78686.97;5003655;28;20017;-66
2022/12/05 01:35:40;;;;;;;37.58;16.38;;;;;;;-142.75;100.00;78696.81;5000987;28;20305;-66
2022/12/05 01:38:07;;;;;;;39.63;16.73;;;;;;;-142.75;100.00;78704.69;5001083;28;20552;-67
2022/12/05 01:40:34;;;;;;;44.00;18.10;;;;;;;-142.75;100.00;78704.69;5001742;28;20029;-67
2022/12/05 01:43:00;;;;;;;36.10;16.50;;;;;;;-142.75;100.00;78690.91;5002560;28;20037;-66
2022/12/05 01:45:46;;;;;;;41.63;18.23;;;;;;;-142.75;100.00;78692.88;5001310;28;20320;-67
2022/12/05 01:48:29;;;;;;;42.47;17.37;;;;;;;-142.75;100.00;78685.00;5002434;28;20040;-67
2022/12/05 01:50:56;;;;;;;41.83;17.27;;;;;;;-142.75;100.00;78692.88;5001007;28;20020;-66
2022/12/05 01:53:22;;;;;;;36.13;16.83;;;;;;;-142.75;100.00;78675.16;5002973;28;20664;-66
2022/12/05 01:55:49;;;;;;;42.85;18.08;;;;;;;-142.75;100.00;78671.22;5000630;28;20039;-66
2022/12/05 01:58:15;;;;;;;37.27;18.40;;;;;;;-142.75;100.00;78685.00;5000711;28;20020;-67
2022/12/05 02:00:41;;;;;;;42.30;18.67;;;;;;;-142.75;100.00;78679.09;5000782;28;20135;-67
2022/12/05 02:03:13;;;;;;;44.43;17.17;;;;;;;-142.75;100.00;78681.06;5002388;28;20036;-67
2022/12/05 02:05:40;;;;;;;41.00;17.60;;;;;;;-142.75;100.00;78675.16;5000920;28;20549;-67
2022/12/05 02:08:06;;;;;;;;;;;;;;;-142.75;100.00;78665.28;5002721;28;20571;-67
2022/12/05 02:10:54;;;;;;;38.72;16.42;;;;;;;-142.75;100.00;78665.28;5002469;28;19993;-67
2022/12/05 02:13:31;;;;;;;39.00;15.87;;;;;;;-142.75;100.00;78661.34;5002016;28;20024;-67
2022/12/05 02:16:18;;;;;;;47.63;17.90;;;;;;;-142.75;100.00;78686.97;4991239;28;20036;-67
2022/12/05 02:19:11;;;;;;;38.45;17.95;;;;;;;-142.75;100.00;78683.03;5002266;28;20036;-67
2022/12/05 02:22:27;;;;;;;43.97;17.67;;;;;;;-142.75;100.00;78677.13;5001989;28;20024;-67
2022/12/05 02:25:28;;;;;;;40.83;18.70;;;;;;;-142.75;100.00;78673.19;4976442;28;20045;-67
2022/12/05 02:28:12;;;;;;;36.37;16.37;;;;;;;-142.75;100.00;78663.31;4969324;28;20037;-66
2022/12/05 02:30:47;;;;;;;40.13;18.03;;;;;;;-142.75;100.00;78661.34;5002297;28;20016;-67
2022/12/05 02:33:18;;;;;;;36.90;15.53;;;;;;;-142.75;100.00;78667.25;5000290;28;20549;-67
2022/12/05 02:36:10;;;;;;;39.50;16.20;;;;;;;-142.75;100.00;78663.31;5001697;28;20028;-67
2022/12/05 02:38:44;;;;;;;43.80;16.53;;;;;;;-142.75;100.00;78665.28;5000360;28;20098;-67
2022/12/05 02:41:42;;;;;;;43.40;17.63;;;;;;;-142.75;100.00;78667.25;5000260;28;20028;-67
2022/12/05 02:44:34;;;;;;;38.70;15.50;;;;;;;-142.75;100.00;78667.25;4992397;28;20067;-67
2022/12/05 02:46:59;;;;;;;41.93;17.50;;;;;;;-142.75;100.00;78671.22;5000102;28;20197;-67
2022/12/05 02:49:33;;;;;;;38.40;15.60;;;;;;;-142.75;100.00;78661.34;5002064;28;20406;-67
2022/12/05 02:52:01;;;;;;;33.87;16.73;;;;;;;-142.75;100.00;78661.34;5001961;28;20032;-67
2022/12/05 02:54:39;;;;;;;37.33;17.17;;;;;;;-142.75;100.00;78659.38;5001883;28;20035;-67
2022/12/05 02:57:05;;;;;;;36.30;16.13;;;;;;;-142.75;100.00;78665.28;5000630;28;20110;-67
2022/12/05 02:59:30;;;;;;;42.95;17.63;;;;;;;-142.75;100.00;78665.28;5002129;28;20032;-67
2022/12/05 03:01:56;;;;;;;42.58;16.75;;;;;;;-142.75;100.00;78665.28;4999895;28;20334;-67
2022/12/05 03:04:23;;;;;;;38.13;17.60;;;;;;;-142.75;100.00;78653.47;5001977;28;20426;-67
2022/12/05 03:06:59;;;;;;;39.87;16.50;;;;;;;-142.75;100.00;78645.59;5001459;28;20111;-67
2022/12/05 03:09:35;;;;;;;44.90;17.35;;;;;;;-142.75;100.00;78645.59;5001783;28;20025;-67
2022/12/05 03:12:21;;;;;;;28.90;13.37;;;;;;;-142.75;100.00;78637.72;4999833;28;20141;-67
2022/12/05 03:15:07;;;;;;;27.73;13.18;;;;;;;-142.75;100.00;78649.53;5001856;28;20024;-68
2022/12/05 03:17:43;;;;;;;32.43;14.47;;;;;;;-142.75;100.00;78641.66;4999660;28;20141;-68
2022/12/05 03:20:30;;;;;;;43.17;16.60;;;;;;;-142.75;100.00;78639.69;5001576;28;20028;-68
2022/12/05 03:23:01;;;;;;;;;;;;;;;-142.75;100.00;78633.78;5000965;28;20398;-68
2022/12/05 03:25:49;;;;;;;43.20;17.93;;;;;;;-142.75;100.00;78645.59;5001460;28;19970;-68
2022/12/05 03:28:24;;;;;;;39.30;16.87;;;;;;;-142.75;100.00;78643.63;5003748;28;20032;-67
2022/12/05 03:30:54;;;;;;;36.03;16.23;;;;;;;-142.75;100.00;78635.75;5005798;28;20104;-68
2022/12/05 03:33:25;;;;;;;35.87;16.53;;;;;;;-142.75;100.00;78643.63;5005639;28;20017;-67
2022/12/05 03:36:16;;;;;;;38.90;17.53;;;;;;;-142.75;100.00;78649.53;5005300;28;20130;-67
2022/12/05 03:39:17;;;;;;;37.60;17.47;;;;;;;-142.75;100.00;78649.53;5000972;28;20017;-67
2022/12/05 03:42:12;;;;;;;35.63;16.53;;;;;;;-142.75;100.00;78649.53;5005841;28;20040;-67
2022/12/05 03:44:46;;;;;;;42.03;16.37;;;;;;;-142.75;100.00;78657.41;5002782;28;20048;-67
2022/12/05 03:47:20;;;;;;;36.00;16.23;;;;;;;-142.75;100.00;78659.38;4998739;28;20607;-67
2022/12/05 03:49:51;;;;;;;38.60;15.73;;;;;;;-142.75;100.00;78661.34;5002803;28;20043;-67
2022/12/05 03:52:36;;;;;;;35.83;17.60;;;;;;;-142.75;100.00;78657.41;5003488;28;20025;-68
2022/12/05 03:55:04;;;;;;;36.93;16.77;;;;;;;-142.75;100.00;78663.31;5005379;28;20587;-67
2022/12/05 03:57:35;;;;;;;30.67;14.97;;;;;;;-142.75;100.00;78659.38;5003234;28;20533;-66
2022/12/05 04:00:06;;;;;;;37.47;15.50;;;;;;;-142.75;100.00;78663.31;5005462;28;20079;-67
2022/12/05 04:02:51;;;;;;;38.67;16.40;;;;;;;-142.75;100.00;78657.41;5005116;28;20029;-68
2022/12/05 04:05:25;;;;;;;35.07;16.13;;;;;;;-142.75;100.00;78661.34;4993245;28;20727;-67
2022/12/05 04:07:56;;;;;;;41.53;14.63;;;;;;;-142.75;100.00;78667.25;5005433;28;20036;-67
2022/12/05 04:10:27;;;;;;;30.83;15.03;;;;;;;-142.75;100.00;78665.28;5004801;28;20028;-68
2022/12/05 04:12:57;;;;;;;33.90;15.10;;;;;;;-142.75;100.00;78675.16;5004693;28;20090;-67
2022/12/05 04:15:27;;;;;;;39.53;17.03;;;;;;;-142.75;100.00;78661.34;5005132;28;20102;-67
2022/12/05 04:17:57;;;;;;;34.03;15.33;;;;;;;-142.75;100.00;78669.25;5004586;28;20044;-67
2022/12/05 04:23:24;;;;;;;36.70;17.70;;;;;;;-142.75;100.00;78653.47;5004522;28;20151;-67
2022/12/05 04:26:03;;;;;;;37.43;16.07;;;;;;;-142.75;100.00;78651.50;5004253;28;20134;-67
2022/12/05 04:28:37;;;;;;;36.37;14.43;;;;;;;-142.75;100.00;78655.44;5004546;28;20024;-67
2022/12/05 04:31:10;;;;;;;35.50;15.60;;;;;;;-142.75;100.00;78661.34;5004329;28;20036;-67
2022/12/05 04:33:49;;;;;;;38.50;16.83;;;;;;;-142.75;100.00;78663.31;5004248;28;20025;-67
2022/12/05 04:36:21;;;;;;;33.40;15.40;;;;;;;-142.75;100.00;78657.41;5004123;28;20131;-67
2022/12/05 04:39:01;;;;;;;30.63;15.33;;;;;;;-142.75;100.00;78653.47;4996579;28;20059;-67
2022/12/05 04:42:00;;;;;;;36.80;15.30;;;;;;;-142.75;100.00;78657.41;5004715;28;20105;-67
2022/12/05 04:44:36;;;;;;;34.07;13.67;;;;;;;-142.75;100.00;78653.47;5004050;28;20056;-67
2022/12/05 04:47:06;;;;;;;35.70;15.87;;;;;;;-142.75;100.00;78645.59;5002728;28;20032;-67
2022/12/05 04:49:34;;;;;;;36.57;15.50;;;;;;;-142.75;100.00;78655.44;5003766;28;20557;-67
2022/12/05 04:52:03;;;;;;;31.97;13.93;;;;;;;-142.75;100.00;78645.59;5004730;28;20082;-67
2022/12/05 04:54:33;;;;;;;31.20;15.43;;;;;;;-142.75;100.00;78651.50;5002214;28;20059;-67
2022/12/05 04:57:06;;;;;;;29.20;13.93;;;;;;;-142.75;100.00;78649.53;5003797;28;20032;-67
2022/12/05 04:59:32;;;;;;;36.93;14.97;;;;;;;-142.75;100.00;78657.41;5003897;28;20055;-67
2022/12/05 05:02:06;;;;;;;35.38;14.15;;;;;;;-142.75;100.00;78653.47;5003993;28;20346;-67
2022/12/05 05:04:36;;;;;;;35.67;15.37;;;;;;;-142.75;100.00;78639.69;5003673;28;20028;-67
2022/12/05 05:07:08;;;;;;;40.20;15.03;;;;;;;-142.75;100.00;78635.75;5003814;28;20138;-68
2022/12/05 05:09:34;;;;;;;35.30;15.17;;;;;;;-142.75;100.00;78641.66;5003517;28;20156;-67
2022/12/05 05:12:00;;;;;;;34.83;16.40;;;;;;;-142.75;100.00;78639.69;5001925;28;20024;-67
2022/12/05 05:14:26;;;;;;;36.08;15.13;;;;;;;-142.75;100.00;78637.72;5003509;28;20399;-67
2022/12/05 05:16:51;;;;;;;28.30;13.98;;;;;;;-142.75;100.00;78635.75;5001829;28;20418;-67
2022/12/05 05:19:17;;;;;;;35.55;13.50;;;;;;;-142.75;100.00;78637.72;5003576;28;20309;-67
2022/12/05 05:21:42;;;;;;;40.28;15.90;;;;;;;-142.75;100.00;78641.66;5003596;28;20170;-67
2022/12/05 05:24:10;;;;;;;31.27;13.43;;;;;;;-142.75;100.00;78625.91;5003338;28;20025;-67
2022/12/05 05:26:40;;;;;;;30.37;14.10;;;;;;;-142.75;100.00;78633.78;5003354;28;20047;-67
2022/12/05 05:29:06;;;;;;;34.63;14.33;;;;;;;-142.75;100.00;78629.84;5003213;28;20059;-67
2022/12/05 05:31:32;;;;;;;;;;;;;;;-142.75;100.00;78627.88;5003516;28;20036;-67
2022/12/05 05:33:58;;;;;;;29.40;13.20;;;;;;;-142.75;100.00;78625.91;5003437;28;20294;-67
2022/12/05 05:36:26;;;;;;;37.90;15.13;;;;;;;-142.75;100.00;78635.75;5002742;28;20424;-67
2022/12/05 05:38:54;;;;;;;33.30;14.93;;;;;;;-142.75;100.00;78629.84;5002950;28;20137;-67
2022/12/05 05:41:23;;;;;;;36.00;14.33;;;;;;;-142.75;100.00;78625.91;5002878;28;20021;-67
2022/12/05 05:43:49;;;;;;;31.70;13.63;;;;;;;-142.75;100.00;78631.81;5002770;28;20086;-67
2022/12/05 05:46:15;;;;;;;;;;;;;;;-142.75;100.00;78625.91;5001389;28;20024;-67
2022/12/05 05:48:40;;;;;;;30.43;12.33;;;;;;;-142.75;100.00;78633.78;4985327;28;20022;-68
2022/12/05 05:51:08;;;;;;;35.28;13.85;;;;;;;-142.75;100.00;78625.91;5003011;28;20419;-67
2022/12/05 05:53:33;;;;;;;26.77;13.07;;;;;;;-142.75;100.00;78629.84;5001158;28;20043;-67
2022/12/05 05:56:03;;;;;;;32.47;14.38;;;;;;;-142.75;100.00;78621.97;5002381;28;20175;-67
2022/12/05 05:58:29;;;;;;;34.53;15.90;;;;;;;-142.75;100.00;78629.84;5000768;28;20024;-67
2022/12/05 06:01:02;;;;;;;33.97;14.95;;;;;;;-142.75;100.00;78621.97;5002792;28;20240;-67
2022/12/05 06:03:27;;;;;;;29.10;14.00;;;;;;;-142.75;100.00;78614.09;5002188;28;20028;-67
2022/12/05 06:05:57;;;;;;;31.85;13.77;;;;;;;-142.75;100.00;78614.09;5002650;28;20465;-67
2022/12/05 06:08:22;;;;;;;29.50;14.47;;;;;;;-142.75;100.00;78633.78;5002127;28;20046;-67
2022/12/05 06:10:48;;;;;;;34.67;14.13;;;;;;;-142.75;100.00;78625.91;5002383;28;20225;-67
2022/12/05 06:13:14;;;;;;;28.88;13.82;;;;;;;-142.75;100.00;78625.91;5000875;28;20356;-67
2022/12/05 06:15:39;;;;;;;38.28;15.05;;;;;;;-142.75;100.00;78616.06;5002321;28;20341;-67
2022/12/05 06:18:05;;;;;;;34.05;14.95;;;;;;;-142.75;100.00;78598.34;5000962;28;20629;-67
2022/12/05 06:20:30;;;;;;;35.42;15.63;;;;;;;-142.75;100.00;78596.38;5002244;28;20332;-67
2022/12/05 06:22:56;;;;;;;31.63;14.10;;;;;;;-142.75;100.00;78606.22;5002277;28;20379;-67
2022/12/05 06:25:21;;;;;;;35.30;15.48;;;;;;;-142.75;100.00;78598.34;5001917;28;20321;-68
2022/12/05 06:27:47;;;;;;;30.90;14.27;;;;;;;-142.75;100.00;78594.41;5002102;28;20380;-67
2022/12/05 06:30:12;;;;;;;35.17;15.27;;;;;;;-142.75;100.00;78586.53;5000423;28;20329;-67
2022/12/05 06:32:38;;;;;;;35.28;14.68;;;;;;;-142.75;100.00;78570.75;5001953;28;20345;-67
2022/12/05 06:35:13;;;;;;;30.95;15.38;;;;;;;-142.75;100.00;78566.81;5001239;28;20079;-67
2022/12/05 06:37:39;;;;;;;31.77;14.70;;;;;;;-142.75;100.00;78568.78;4999696;28;20028;-67
2022/12/05 06:40:05;;;;;;;32.78;14.60;;;;;;;-142.75;100.00;78564.84;5000103;28;20490;-67
2022/12/05 06:42:31;;;;;;;36.58;14.55;;;;;;;-142.75;100.00;78566.81;5001937;28;20830;-67
2022/12/05 06:44:57;;;;;;;34.60;14.65;;;;;;;-142.75;100.00;78547.13;5000107;28;20382;-67
2022/12/05 06:47:22;;;;;;;27.77;14.68;;;;;;;-142.75;100.00;78553.03;5001737;28;20170;-67
2022/12/05 06:49:48;;;;;;;33.35;15.38;;;;;;;-142.75;100.00;78547.13;5001881;28;20337;-67
2022/12/05 06:52:13;;;;;;;34.03;15.52;;;;;;;-142.75;100.00;78545.16;5002142;28;20232;-67
2022/12/05 06:54:38;;;;;;;33.72;14.70;;;;;;;-142.75;100.00;78545.16;5007313;28;20274;-67
2022/12/05 06:57:04;;;;;;;31.98;14.70;;;;;;;-142.75;100.00;78533.34;5002644;28;20197;-67
2022/12/05 06:59:30;;;;;;;28.80;14.27;;;;;;;-142.75;100.00;78529.41;5000254;28;20539;-67
2022/12/05 07:01:55;;;;;;;29.58;14.15;;;;;;;-142.75;100.00;78531.38;4999795;28;20224;-67
2022/12/05 07:04:25;;;;;;;32.03;14.48;;;;;;;-142.75;100.00;78535.31;5002292;28;20251;-67
2022/12/05 07:06:53;;;;;;;34.23;15.67;;;;;;;-142.75;100.00;78537.28;5002046;28;20673;-67
2022/12/05 07:09:21;;;;;;;32.53;14.30;;;;;;;-142.75;100.00;78545.16;5001838;28;20024;-67
2022/12/05 07:11:50;;;;;;;35.47;14.50;;;;;;;-142.75;100.00;78531.38;5001966;28;20021;-67
2022/12/05 07:14:16;;;;;;;30.87;14.57;;;;;;;-142.75;100.00;78535.31;5002033;28;20579;-67
2022/12/05 07:16:42;;;;;;;32.87;14.03;;;;;;;-142.75;100.00;78521.53;5001868;28;20028;-67
2022/12/05 07:19:09;;;;;;;34.80;14.20;;;;;;;-142.75;100.00;78523.50;5001485;28;20379;-67
2022/12/05 07:21:34;;;;;;;32.33;14.30;;;;;;;-142.75;100.00;78529.41;5001881;28;20592;-68
2022/12/05 07:24:00;;;;;;;30.15;13.85;;;;;;;-142.75;100.00;78519.56;5003696;28;20131;-67
2022/12/05 07:26:25;;;;;;;28.80;13.82;;;;;;;-142.75;100.00;78523.50;4999543;28;20337;-67
2022/12/05 07:28:55;;;;;;;32.58;14.05;;;;;;;-142.75;100.00;78521.53;5001759;28;20206;-67
2022/12/05 07:31:22;;;;;;;32.57;15.30;;;;;;;-142.75;100.00;78515.63;5001419;28;20078;-67
2022/12/05 07:33:50;;;;;;;29.57;13.97;;;;;;;-142.75;100.00;78509.72;5001321;28;20016;-67
2022/12/05 07:36:19;;;;;;;29.63;13.73;;;;;;;-142.75;100.00;78511.69;5001201;28;20545;-67
2022/12/05 07:38:45;;;;;;;34.93;14.43;;;;;;;-142.75;100.00;78525.47;5001468;28;20576;-67
2022/12/05 07:41:18;;;;;;;30.23;13.60;;;;;;;-142.75;100.00;78513.66;4999862;28;20020;-67
2022/12/05 07:43:44;;;;;;;33.40;14.93;;;;;;;-142.75;100.00;78521.53;5001163;28;20040;-67
2022/12/05 07:46:13;;;;;;;31.35;14.50;;;;;;;-142.75;100.00;78521.53;5001223;28;20193;-67
2022/12/05 07:48:38;;;;;;;30.37;13.73;;;;;;;-142.75;100.00;78527.44;5001870;28;20029;-67
2022/12/05 07:51:06;;;;;;;26.75;12.70;;;;;;;-142.75;100.00;78519.56;4999996;28;20334;-67
2022/12/05 07:53:32;;;;;;;31.90;13.83;;;;;;;-142.75;100.00;78519.56;4999282;28;20032;-67
2022/12/05 07:55:59;;;;;;;29.58;13.73;;;;;;;-142.75;100.00;78519.56;5001346;28;20068;-67
2022/12/05 07:58:25;;;;;;;30.20;12.47;;;;;;;-142.75;100.00;78505.78;5001325;28;20098;-67
2022/12/05 08:00:50;;;;;;;;;;;;;;;-142.75;100.00;78501.84;5001993;28;20029;-67
2022/12/05 08:03:16;;;;;;;27.63;11.90;;;;;;;-142.75;100.00;78507.75;5001200;28;20236;-67
2022/12/05 08:05:42;;;;;;;25.88;11.90;;;;;;;-142.75;100.00;78517.59;5000727;28;20400;-67
2022/12/05 08:08:07;;;;;;;26.58;13.07;;;;;;;-142.75;100.00;78505.78;5001138;28;20463;-67
2022/12/05 08:10:34;;;;;;;26.63;12.13;;;;;;;-142.75;100.00;78503.81;5001189;28;20292;-67
2022/12/05 08:12:59;;;;;;;21.80;10.13;;;;;;;-142.75;100.00;78503.81;5002222;28;20209;-67
2022/12/05 08:15:25;;;;;;;27.27;12.27;;;;;;;-142.75;100.00;78497.91;5004852;28;20422;-67
2022/12/05 08:17:50;;;;;;;24.30;11.05;;;;;;;-142.75;100.00;78503.81;5002913;28;20430;-67
2022/12/05 08:20:16;;;;;;;23.25;10.75;;;;;;;-142.75;100.00;78497.91;5004587;28;20352;-67
2022/12/05 08:22:41;;;;;;;23.70;11.30;;;;;;;-142.75;100.00;78501.84;5005330;28;20333;-67
2022/12/05 08:25:07;;;;;;;23.42;10.25;;;;;;;-142.75;100.00;78511.69;5004317;28;20455;-67
2022/12/05 08:27:32;;;;;;;20.05;10.20;;;;;;;-142.75;100.00;78503.81;5005104;28;20344;-67
2022/12/05 08:29:58;;;;;;;23.10;11.27;;;;;;;-142.75;100.00;78509.72;5024839;28;20029;-68
2022/12/05 08:32:23;;;;;;;21.70;11.00;;;;;;;-142.75;100.00;78505.78;5062060;28;20046;-67
2022/12/05 08:34:48;;;;;;;20.42;10.60;;;;;;;-142.75;100.00;78517.59;5062105;28;20829;-67
2022/12/05 08:37:14;;;;;;;21.70;10.13;;;;;;;-142.75;100.00;78517.59;5060923;28;20028;-66
2022/12/05 08:39:39;;;;;;;21.33;9.98;;;;;;;-142.75;100.00;78507.75;5061968;28;20600;-70
2022/12/05 08:42:04;;;;;;;19.60;10.57;;;;;;;-142.75;100.00;78507.75;5061552;28;20032;-64
2022/12/05 08:44:30;;;;;;;23.55;10.73;;;;;;;-142.75;100.00;78513.66;5063056;28;20054;-66
2022/12/05 08:46:55;;;;;;;18.00;9.80;;;;;;;-142.75;100.00;78488.03;5059140;28;20082;-68
2022/12/05 08:49:20;;;;;;;19.75;10.25;;;;;;;-142.75;100.00;78511.69;5061377;28;20103;-69
2022/12/05 08:51:46;;;;;;;18.15;9.40;;;;;;;-142.75;100.00;78513.66;5061197;28;20031;-67
2022/12/05 08:54:11;;;;;;;17.13;9.50;;;;;;;-142.75;100.00;78523.50;5059356;28;20478;-67
2022/12/05 08:56:37;;;;;;;19.23;9.88;;;;;;;-142.75;100.00;78535.31;5056852;28;20028;-65
2022/12/05 08:59:03;;;;;;;15.10;8.57;;;;;;;-142.75;100.00;78505.78;5058495;28;20067;-66
2022/12/05 09:01:32;;;;;;;17.40;9.13;;;;;;;-142.75;100.00;78499.88;5054123;28;20426;-67
2022/12/05 09:04:03;;;;;;;22.13;10.20;;;;;;;-142.75;100.00;78519.56;5060458;28;20051;-67
2022/12/05 09:06:28;;;;;;;18.80;9.90;;;;;;;-142.75;100.00;78511.69;5061004;28;20047;-67
2022/12/05 09:09:05;;;;;;;19.67;9.63;;;;;;;-142.75;100.00;78511.69;5056939;28;20111;-67
2022/12/05 09:11:34;;;;;;;15.20;8.90;;;;;;;-142.75;100.00;78517.59;5062057;28;20082;-67
2022/12/05 09:14:01;;;;;;;16.47;9.13;;;;;;;-142.75;100.00;78535.31;5059369;28;20488;-66
2022/12/05 09:16:29;;;;;;;17.83;9.43;;;;;;;-142.75;100.00;78525.47;5058690;28;20037;-66
2022/12/05 09:18:55;;;;;;;18.13;8.97;;;;;;;-142.75;100.00;78521.53;5058308;28;20036;-68
2022/12/05 09:21:23;;;;;;;19.95;9.80;;;;;;;-142.75;100.00;78511.69;5061550;28;20093;-67
2022/12/05 09:23:50;;;;;;;18.70;9.83;;;;;;;-142.75;100.00;78513.66;5060861;28;20017;-66
2022/12/05 09:26:17;;;;;;;19.60;10.20;;;;;;;-142.75;100.00;78525.47;5060750;28;20063;-67
2022/12/05 09:28:43;;;;;;;21.50;10.17;;;;;;;-142.75;100.00;78527.44;5059703;28;20068;-68
2022/12/05 09:31:11;;;;;;;14.27;9.20;;;;;;;-142.75;100.00;78523.50;5059440;28;20028;-68
2022/12/05 09:33:37;;;;;;;18.07;9.70;;;;;;;-142.75;100.00;78519.56;5061295;28;20020;-67
2022/12/05 09:36:10;;;;;;;15.77;10.15;;;;;;;-142.75;100.00;78517.59;5059785;28;20500;-66
2022/12/05 09:38:35;;;;;;;17.23;8.40;;;;;;;-142.75;100.00;78513.66;5060002;28;20081;-66
2022/12/05 09:41:16;;;;;;;19.02;10.15;;;;;;;-142.75;100.00;78519.56;5059657;28;20040;-67
2022/12/05 09:44:36;;;;;;;20.73;9.33;;;;;;;-142.75;100.00;78523.50;5060624;28;20749;-67
2022/12/05 09:47:25;;;;;;;17.80;9.20;;;;;;;-142.75;100.00;78531.38;5035055;28;20098;-66
2022/12/05 09:49:57;;;;;;;17.70;9.67;;;;;;;-142.75;100.00;78511.69;5056907;28;20060;-65
2022/12/05 09:52:52;;;;;;;15.87;8.47;;;;;;;-142.75;100.00;78511.69;5058355;28;20209;-66
2022/12/05 09:55:19;;;;;;;16.40;8.47;;;;;;;-142.75;100.00;78503.81;5051140;28;20031;-63
2022/12/05 09:57:54;;;;;;;15.47;7.80;;;;;;;-142.75;100.00;78493.97;5056618;28;20512;-66
2022/12/05 10:00:20;;;;;;;15.10;7.93;;;;;;;-142.75;100.00;78491.97;5052006;28;20025;-69
2022/12/05 10:03:18;;;;;;;17.55;7.53;;;;;;;-142.75;100.00;78478.19;5058504;28;20035;-67
2022/12/05 10:06:25;;;;;;;16.33;8.37;;;;;;;-142.75;100.00;78484.09;5055710;28;20032;-67
2022/12/05 10:09:06;;;;;;;13.67;7.10;;;;;;;-142.75;100.00;78476.22;5015452;28;20025;-68
2022/12/05 10:11:59;;;;;;;15.20;8.67;;;;;;;-142.75;100.00;78468.34;5057189;28;20055;-66
2022/12/05 10:14:45;;;;;;;14.20;7.33;;;;;;;-142.75;100.00;78472.28;5059945;28;20127;-67
2022/12/05 10:17:25;;;;;;;11.53;6.77;;;;;;;-142.75;100.00;78462.44;5057874;28;20363;-68
2022/12/05 10:19:52;;;;;;;11.73;6.83;;;;;;;-142.75;100.00;78472.28;5056797;28;20052;-68
2022/12/05 10:22:51;;;;;;;12.47;7.20;;;;;;;-142.75;100.00;78466.38;5060294;28;20211;-65
2022/12/05 10:25:20;;;;;;;11.43;6.93;;;;;;;-142.75;100.00;78460.47;5054363;28;20141;-67
2022/12/05 10:27:57;;;;;;;13.37;7.63;;;;;;;-142.75;100.00;78470.31;5058134;28;20831;-65
2022/12/05 10:30:31;;;;;;;11.87;6.67;;;;;;;-142.75;100.00;78476.22;5059347;28;20626;-67
2022/12/05 10:33:04;;;;;;;9.57;5.90;;;;;;;-142.75;100.00;78462.44;5060253;28;20020;-66
2022/12/05 10:35:36;;;;;;;11.23;6.07;;;;;;;-142.75;100.00;78456.53;5057990;28;20036;-66
2022/12/05 10:38:05;;;;;;;10.27;6.30;;;;;;;-142.75;100.00;78452.59;5058697;28;20043;-67
2022/12/05 10:40:36;;;;;;;12.23;6.30;;;;;;;-142.75;100.00;78472.28;5059771;28;20029;-68
2022/12/05 10:43:07;;;;;;;12.53;6.10;;;;;;;-142.75;100.00;78462.44;5059372;28;20029;-67
2022/12/05 10:45:39;;;;;;;9.23;5.30;;;;;;;-142.75;100.00;78452.59;5058643;28;20024;-69
2022/12/05 10:48:04;;;;;;;18.30;5.93;;;;;;;-142.75;100.00;78448.66;5056000;28;20182;-66
2022/12/05 10:50:35;;;;;;;10.40;6.57;;;;;;;-142.75;100.00;78444.72;5056840;28;20032;-68
2022/12/05 10:53:03;;;;;;;12.77;6.33;;;;;;;-142.75;100.00;78442.75;5052554;28;20510;-68
2022/12/05 10:55:52;;;;;;;10.77;5.90;;;;;;;-142.75;100.00;78458.50;5049198;28;20012;-68
2022/12/05 10:58:22;;;;;;;13.57;6.13;;;;;;;-142.75;100.00;78446.69;5054929;28;20028;-64
2022/12/05 11:00:50;;;;;;;10.80;6.30;;;;;;;-142.75;100.00;78472.28;5056006;28;20031;-64
2022/12/05 11:03:38;;;;;;;9.10;5.33;;;;;;;-142.75;100.00;78456.53;5055866;28;20028;-67
2022/12/05 11:06:29;;;;;;;8.53;5.10;;;;;;;-142.75;100.00;78460.47;5051789;28;20025;-64
2022/12/05 11:09:03;;;;;;;12.40;5.70;;;;;;;-142.75;100.00;78462.44;5050682;28;20036;-69
2022/12/05 11:11:33;;;;;;;9.50;5.60;;;;;;;-142.75;100.00;78448.66;5057360;28;20056;-67
2022/12/05 11:14:05;;;;;;;13.67;7.40;;;;;;;-142.75;100.00;78432.91;5057403;28;20028;-67
2022/12/05 11:16:34;;;;;;;10.37;6.10;;;;;;;-142.75;100.00;78428.97;5053496;28;20036;-64